createdAt,value
2022-11-25T00:01:39.324Z,11.30
2022-11-25T00:06:41.578Z,11.06
2022-11-25T00:11:43.918Z,10.80
2022-11-25T00:16:48.715Z,11.14
2022-11-25T00:21:51.316Z,11.05
2022-11-25T00:26:53.496Z,10.78
2022-11-25T00:31:55.852Z,10.92
2022-11-25T00:36:58.345Z,10.66
2022-11-25T00:42:19.092Z,10.66
2022-11-25T00:47:22.659Z,10.67
2022-11-25T00:52:27.526Z,10.70
2022-11-25T00:57:30.156Z,10.60
2022-11-25T01:02:32.465Z,10.37
2022-11-25T01:07:34.790Z,10.26
2022-11-25T01:12:37.199Z,10.52
2022-11-25T01:17:39.630Z,10.55
2022-11-25T01:22:42.011Z,10.51
2022-11-25T01:27:44.348Z,10.42
2022-11-25T01:32:46.521Z,10.63
2022-11-25T01:37:48.764Z,11.03
2022-11-25T01:42:51.043Z,11.17
2022-11-25T01:48:00.409Z,10.95
2022-11-25T01:53:08.438Z,10.86
2022-11-25T01:58:21.411Z,11.20
2022-11-25T02:03:28.943Z,10.99
2022-11-25T02:08:33.438Z,10.67
2022-11-25T02:13:37.159Z,10.78
2022-11-25T02:18:39.676Z,10.77
2022-11-25T02:23:55.024Z,10.55
2022-11-25T02:28:58.008Z,9.95
2022-11-25T02:34:00.233Z,10.11
2022-11-25T02:39:03.785Z,10.16
2022-11-25T02:44:06.789Z,10.33
2022-11-25T02:49:10.150Z,9.87
2022-11-25T02:54:16.798Z,9.93
2022-11-25T02:59:19.057Z,10.22
2022-11-25T03:04:21.516Z,9.70
2022-11-25T03:09:23.910Z,10.15
2022-11-25T03:14:26.139Z,9.83
2022-11-25T03:19:28.571Z,9.84
2022-11-25T03:24:31.504Z,9.85
2022-11-25T03:29:33.726Z,9.99
2022-11-25T03:34:36.162Z,10.05
2022-11-25T03:39:38.685Z,9.87
2022-11-25T03:44:40.892Z,9.76
2022-11-25T03:49:43.331Z,9.38
2022-11-25T03:54:45.775Z,9.49
2022-11-25T03:59:48.148Z,9.50
2022-11-25T04:04:50.493Z,9.60
2022-11-25T04:09:52.861Z,9.50
2022-11-25T04:14:55.046Z,9.00
2022-11-25T04:19:57.523Z,8.98
2022-11-25T04:24:59.842Z,9.15
2022-11-25T04:30:02.133Z,8.91
2022-11-25T04:35:04.825Z,8.90
2022-11-25T04:40:08.014Z,8.89
2022-11-25T04:45:22.920Z,9.21
2022-11-25T04:50:25.971Z,8.85
2022-11-25T04:55:28.448Z,8.84
2022-11-25T05:00:30.985Z,9.02
2022-11-25T05:05:33.354Z,9.00
2022-11-25T05:10:35.616Z,8.91
2022-11-25T05:15:37.961Z,8.78
2022-11-25T05:20:40.224Z,9.00
2022-11-25T05:25:42.636Z,8.82
2022-11-25T05:30:45.798Z,8.71
2022-11-25T05:36:14.272Z,8.92
2022-11-25T05:41:16.699Z,8.86
2022-11-25T05:46:20.008Z,9.14
2022-11-25T05:51:23.187Z,9.11
2022-11-25T05:56:25.405Z,9.08
2022-11-25T06:01:27.912Z,9.56
2022-11-25T06:06:30.673Z,9.45
2022-11-25T06:11:33.011Z,9.07
2022-11-25T06:16:35.205Z,9.40
2022-11-25T06:21:37.701Z,9.54
2022-11-25T06:26:40.027Z,9.70
2022-11-25T06:31:42.599Z,9.54
2022-11-25T06:36:45.066Z,10.11
2022-11-25T06:41:48.703Z,10.25
2022-11-25T06:46:50.979Z,9.98
2022-11-25T06:51:53.172Z,10.06
2022-11-25T06:56:55.355Z,10.48
2022-11-25T07:01:57.591Z,10.55
2022-11-25T07:07:00.001Z,10.78
2022-11-25T07:12:02.402Z,10.51
2022-11-25T07:17:10.345Z,11.18
2022-11-25T07:22:14.269Z,11.33
2022-11-25T07:27:16.469Z,11.48
2022-11-25T07:32:18.763Z,11.60
2022-11-25T07:37:21.040Z,11.76
2022-11-25T07:42:23.352Z,11.73
2022-11-25T07:47:25.971Z,11.96
2022-11-25T07:52:28.292Z,12.11
2022-11-25T07:57:30.545Z,12.38
2022-11-25T08:02:32.944Z,12.58
2022-11-25T08:07:36.869Z,12.22
2022-11-25T08:12:39.423Z,12.61
2022-11-25T08:17:41.767Z,12.91
2022-11-25T08:22:43.961Z,13.06
2022-11-25T08:27:46.224Z,13.26
2022-11-25T08:32:48.815Z,13.22
2022-11-25T08:37:51.511Z,13.64
2022-11-25T08:42:53.913Z,13.64
2022-11-25T08:47:56.603Z,13.84
2022-11-25T08:53:00.309Z,14.05
2022-11-25T08:58:02.907Z,13.99
2022-11-25T09:03:05.265Z,14.00
2022-11-25T09:08:09.158Z,14.44
2022-11-25T09:13:12.114Z,14.38
2022-11-25T09:18:15.958Z,14.46
2022-11-25T09:23:18.439Z,14.60
2022-11-25T09:28:22.282Z,14.82
2022-11-25T09:33:24.631Z,14.75
2022-11-25T09:38:26.930Z,14.87
2022-11-25T09:44:02.878Z,15.14
2022-11-25T09:49:23.428Z,15.23
2022-11-25T09:54:35.223Z,15.34
2022-11-25T09:59:58.932Z,15.25
2022-11-25T10:05:29.318Z,15.48
2022-11-25T10:10:43.287Z,15.54
2022-11-25T10:15:50.388Z,15.59
2022-11-25T10:20:53.768Z,15.59
2022-11-25T10:26:03.459Z,15.92
2022-11-25T10:31:22.975Z,16.07
2022-11-25T10:36:29.694Z,15.94
2022-11-25T10:41:37.596Z,15.84
2022-11-25T10:47:12.795Z,15.79
2022-11-25T10:52:14.661Z,16.32
2022-11-25T10:57:19.869Z,16.37
2022-11-25T11:02:30.476Z,16.38
2022-11-25T11:07:35.568Z,16.45
2022-11-25T11:12:37.875Z,16.45
2022-11-25T11:17:40.197Z,16.43
2022-11-25T11:22:58.810Z,16.57
2022-11-25T11:28:03.124Z,16.55
2022-11-25T11:33:26.495Z,16.79
2022-11-25T11:38:54.337Z,16.71
2022-11-25T11:44:22.520Z,16.84
2022-11-25T11:49:57.215Z,17.04
2022-11-25T11:55:44.315Z,16.94
2022-11-25T12:00:57.199Z,17.11
2022-11-25T12:06:05.083Z,17.25
2022-11-25T12:11:15.508Z,17.05
2022-11-25T12:16:25.775Z,17.54
2022-11-25T12:21:52.595Z,17.70
2022-11-25T12:27:06.623Z,17.91
2022-11-25T12:32:17.629Z,18.09
2022-11-25T12:37:34.413Z,18.18
2022-11-25T12:42:40.849Z,17.82
2022-11-25T12:47:44.653Z,18.33
2022-11-25T12:52:53.412Z,18.32
2022-11-25T12:58:09.656Z,18.27
2022-11-25T13:03:49.614Z,18.50
2022-11-25T13:09:28.976Z,18.68
2022-11-25T13:15:16.804Z,18.84
2022-11-25T13:20:28.295Z,19.01
2022-11-25T13:25:30.829Z,19.08
2022-11-25T13:30:33.227Z,19.17
2022-11-25T13:35:36.810Z,19.36
2022-11-25T13:40:40.245Z,19.46
2022-11-25T13:45:45.707Z,19.28
2022-11-25T13:56:30.423Z,19.44
2022-11-25T14:01:32.677Z,19.93
2022-11-25T14:06:51.755Z,20.11
2022-11-25T14:12:28.192Z,20.37
2022-11-25T14:18:04.490Z,20.25
2022-11-25T14:23:37.294Z,20.58
2022-11-25T14:28:42.481Z,20.90
2022-11-25T14:34:05.726Z,20.75
2022-11-25T14:39:23.302Z,19.87
2022-11-25T14:44:36.228Z,19.25
2022-11-25T14:49:59.562Z,18.74
2022-11-25T14:55:10.667Z,17.98
2022-11-25T15:00:16.358Z,17.80
2022-11-25T15:05:20.474Z,17.37
2022-11-25T15:10:34.068Z,16.90
2022-11-25T15:15:36.555Z,16.72
2022-11-25T15:20:39.043Z,16.41
2022-11-25T15:25:50.859Z,16.09
2022-11-25T15:30:58.673Z,15.91
2022-11-25T15:36:01.054Z,15.69
2022-11-25T15:41:04.233Z,15.45
2022-11-25T15:46:07.308Z,15.42
2022-11-25T15:51:38.845Z,15.39
2022-11-25T15:56:47.393Z,15.09
2022-11-25T16:01:49.804Z,15.06
2022-11-25T16:06:57.538Z,15.07
2022-11-25T16:12:07.246Z,14.92
2022-11-25T16:17:13.701Z,14.79
2022-11-25T16:22:19.438Z,14.65
2022-11-25T16:27:25.135Z,14.44
2022-11-25T16:32:29.952Z,14.36
2022-11-25T16:37:32.373Z,14.47
2022-11-25T16:42:34.793Z,14.26
2022-11-25T16:47:37.148Z,14.15
2022-11-25T16:52:39.422Z,14.13
2022-11-25T16:57:43.470Z,14.17
2022-11-25T17:02:45.993Z,14.12
2022-11-25T17:07:51.373Z,14.01
2022-11-25T17:12:53.714Z,13.73
2022-11-25T17:17:56.561Z,13.82
2022-11-25T17:22:59.729Z,13.62
2022-11-25T17:28:02.193Z,13.37
2022-11-25T17:33:07.599Z,13.18
2022-11-25T17:38:21.542Z,13.14
2022-11-25T17:43:23.825Z,13.00
2022-11-25T17:48:32.048Z,12.68
2022-11-25T17:53:38.226Z,12.56
2022-11-25T17:58:40.505Z,12.66
2022-11-25T18:03:42.763Z,12.32
2022-11-25T18:08:44.987Z,12.22
2022-11-25T18:13:48.222Z,12.35
2022-11-25T18:18:50.832Z,12.06
2022-11-25T18:23:54.313Z,12.02
2022-11-25T18:28:56.750Z,11.87
2022-11-25T18:33:58.937Z,11.74
2022-11-25T18:39:01.366Z,11.63
2022-11-25T18:44:06.275Z,11.63
2022-11-25T18:49:16.167Z,11.54
2022-11-25T18:54:18.364Z,11.05
2022-11-25T18:59:29.231Z,11.35
2022-11-25T19:04:31.543Z,11.22
2022-11-25T19:09:34.011Z,11.15
2022-11-25T19:14:40.250Z,10.98
2022-11-25T19:19:43.284Z,11.01
2022-11-25T19:24:46.568Z,11.02
2022-11-25T19:29:50.245Z,10.96
2022-11-25T19:34:57.468Z,10.89
2022-11-25T19:39:59.689Z,10.46
2022-11-25T19:45:03.810Z,10.46
2022-11-25T19:50:07.006Z,10.42
2022-11-25T19:55:18.555Z,10.33
2022-11-25T20:00:22.624Z,10.41
2022-11-25T20:05:32.342Z,10.14
2022-11-25T20:10:53.448Z,10.11
2022-11-25T20:15:56.983Z,9.89
2022-11-25T20:21:03.762Z,9.99
2022-11-25T20:26:06.339Z,9.79
2022-11-25T20:31:12.148Z,9.59
2022-11-25T20:36:17.640Z,9.76
2022-11-25T20:41:25.977Z,9.64
2022-11-25T20:46:30.541Z,9.29
2022-11-25T20:51:32.930Z,9.46
2022-11-25T20:56:35.483Z,9.47
2022-11-25T21:01:37.731Z,9.36
2022-11-25T21:06:41.252Z,9.48
2022-11-25T21:11:43.697Z,9.22
2022-11-25T21:16:47.166Z,9.41
2022-11-25T21:21:51.332Z,9.58
2022-11-25T21:26:53.737Z,9.36
2022-11-25T21:31:56.222Z,9.13
2022-11-25T21:36:59.314Z,9.21
2022-11-25T21:42:05.596Z,9.08
2022-11-25T21:47:19.513Z,9.08
2022-11-25T21:52:22.359Z,9.03
2022-11-25T21:57:29.141Z,8.94
2022-11-25T22:02:31.429Z,8.81
2022-11-25T22:07:33.937Z,8.77
2022-11-25T22:12:40.952Z,8.78
2022-11-25T22:17:43.958Z,8.93
2022-11-25T22:22:46.225Z,8.92
2022-11-25T22:27:49.235Z,8.75
2022-11-25T22:32:59.666Z,8.94
2022-11-25T22:38:02.739Z,8.81
2022-11-25T22:43:05.192Z,8.82
2022-11-25T22:48:08.481Z,8.95
2022-11-25T22:53:16.814Z,8.71
2022-11-25T22:58:19.136Z,8.65
2022-11-25T23:03:29.557Z,8.63
2022-11-25T23:08:34.682Z,8.42
2022-11-25T23:13:36.913Z,8.43
2022-11-25T23:18:46.113Z,8.58
2022-11-25T23:23:48.657Z,8.55
2022-11-25T23:28:50.871Z,8.28
2022-11-25T23:33:53.832Z,8.25
2022-11-25T23:39:02.268Z,8.26
2022-11-25T23:44:17.194Z,8.21
2022-11-25T23:49:27.691Z,8.31
2022-11-25T23:54:40.880Z,7.97
2022-11-25T23:59:43.772Z,7.89
